This is the latest recevied weather packets stored in our database for station/object DC4XK-10. If no packets are shown the sender has not sent any weather packets the latest 10 day(s).
| Time | Temp. | Humidity | Pressure | Rain* | Wind** | Luminosity | Snow |
|---|---|---|---|---|---|---|---|
| 1777771733 | 13.33° C | 94% | 1011.5 hPa | 0 mm | 0 m/s | - | - |
| 1777771131 | 12.78° C | 92% | 1011.8 hPa | 0 mm | 0 m/s | - | - |
| 1777770531 | 13.33° C | 91% | 1012.1 hPa | 0 mm | 0 m/s | - | - |
| 1777769930 | 13.33° C | 89% | 1012.2 hPa | 0 mm | 0 m/s | - | - |
| 1777769331 | 13.33° C | 86% | 1012.7 hPa | 0 mm | 0 m/s | - | - |
| 1777768732 | 13.33° C | 85% | 1012.7 hPa | 0 mm | 1.34 m/s, 202° | - | - |
| 1777768131 | 12.78° C | 83% | 1012.7 hPa | 0 mm | 0 m/s | - | - |
| 1777767531 | 12.22° C | 84% | 1012.3 hPa | 0 mm | 0.89 m/s, 174° | - | - |
| 1777766931 | 12.22° C | 83% | 1011.8 hPa | 0 mm | 0 m/s | - | - |
| 1777766330 | 12.78° C | 81% | 1012.1 hPa | 0 mm | 0 m/s | - | - |
| 1777765731 | 12.22° C | 83% | 1012.1 hPa | 0 mm | 0 m/s | - | - |
| 1777765132 | 11.67° C | 84% | 1012.1 hPa | 0 mm | 0 m/s | - | - |
| 1777764531 | 11.67° C | 83% | 1012.1 hPa | 0 mm | 0 m/s | - | - |
| 1777763931 | 12.22° C | 82% | 1012.2 hPa | 0 mm | 0 m/s | - | - |
| 1777763332 | 12.78° C | 79% | 1012.3 hPa | 0 mm | 0 m/s | - | - |
| 1777762731 | 12.78° C | 79% | 1012.4 hPa | 0 mm | 0 m/s | - | - |
| 1777762131 | 12.78° C | 79% | 1012 hPa | 0 mm | 0 m/s | - | - |
| 1777761533 | 12.78° C | 79% | 1012.2 hPa | 0 mm | 0 m/s | - | - |
| 1777760931 | 13.33° C | 77% | 1012.1 hPa | 0 mm | 0 m/s | - | - |
| 1777760331 | 13.89° C | 75% | 1012.3 hPa | 0 mm | 0 m/s | - | - |
| 1777759734 | 14.44° C | 73% | 1012.4 hPa | 0 mm | 0 m/s | - | - |
| 1777759131 | 14.44° C | 71% | 1012.4 hPa | 0 mm | 0 m/s | - | - |
| 1777758530 | 15.56° C | 68% | 1012.5 hPa | 0 mm | 0 m/s | - | - |
| 1777757932 | 16.11° C | 66% | 1012.6 hPa | 0 mm | 0 m/s | - | - |
| 1777757331 | 16.11° C | 66% | 1012.8 hPa | 0 mm | 0 m/s | - | - |
* Rain latest hour (hover to see other rain measurements)
** Current wind speed in m/s (hover to see current wind gust speed)